sensor_id;sensor_type;location;lat;lon;timestamp;pressure;altitude;pressure_sealevel;temperature;humidity
70248;BME280;57641;51.416;5.506;2022-11-20T00:00:44;101395.22;;;6.07;49.73
70248;BME280;57641;51.416;5.506;2022-11-20T00:03:09;101398.81;;;6.06;51.02
70248;BME280;57641;51.416;5.506;2022-11-20T00:05:35;101392.78;;;6.04;51.04
70248;BME280;57641;51.416;5.506;2022-11-20T00:08:01;101394.06;;;5.99;51.27
70248;BME280;57641;51.416;5.506;2022-11-20T00:10:27;101392.59;;;5.94;51.47
70248;BME280;57641;51.416;5.506;2022-11-20T00:12:52;101395.47;;;5.91;51.38
70248;BME280;57641;51.416;5.506;2022-11-20T00:15:17;101407.63;;;5.81;50.96
70248;BME280;57641;51.416;5.506;2022-11-20T00:17:43;101399.69;;;5.81;51.81
70248;BME280;57641;51.416;5.506;2022-11-20T00:20:09;101396.22;;;5.81;51.82
70248;BME280;57641;51.416;5.506;2022-11-20T00:22:34;101402.34;;;5.81;51.27
70248;BME280;57641;51.416;5.506;2022-11-20T00:25:00;101404.16;;;5.68;51.62
70248;BME280;57641;51.416;5.506;2022-11-20T00:27:25;101393.16;;;5.62;51.78
70248;BME280;57641;51.416;5.506;2022-11-20T00:29:51;101390.50;;;5.62;52.51
70248;BME280;57641;51.416;5.506;2022-11-20T00:32:16;101387.16;;;5.60;52.44
70248;BME280;57641;51.416;5.506;2022-11-20T00:34:41;101388.00;;;5.60;52.48
70248;BME280;57641;51.416;5.506;2022-11-20T00:37:07;101383.66;;;5.59;52.56
70248;BME280;57641;51.416;5.506;2022-11-20T00:39:32;101387.66;;;5.65;52.72
70248;BME280;57641;51.416;5.506;2022-11-20T00:41:58;101386.72;;;5.66;52.62
70248;BME280;57641;51.416;5.506;2022-11-20T00:44:23;101390.19;;;5.66;52.54
70248;BME280;57641;51.416;5.506;2022-11-20T00:46:48;101399.28;;;5.62;52.22
70248;BME280;57641;51.416;5.506;2022-11-20T00:49:14;101392.31;;;5.61;52.20
70248;BME280;57641;51.416;5.506;2022-11-20T00:51:39;101383.75;;;5.58;52.75
70248;BME280;57641;51.416;5.506;2022-11-20T00:54:05;101385.53;;;5.57;52.51
70248;BME280;57641;51.416;5.506;2022-11-20T00:56:30;101388.28;;;5.56;52.95
70248;BME280;57641;51.416;5.506;2022-11-20T00:58:59;101390.22;;;5.53;53.23
70248;BME280;57641;51.416;5.506;2022-11-20T01:01:26;101388.53;;;5.52;53.12
70248;BME280;57641;51.416;5.506;2022-11-20T01:03:53;101386.09;;;5.49;53.25
70248;BME280;57641;51.416;5.506;2022-11-20T01:06:22;101384.50;;;5.47;53.18
70248;BME280;57641;51.416;5.506;2022-11-20T01:08:49;101382.81;;;5.46;53.63
70248;BME280;57641;51.416;5.506;2022-11-20T01:11:21;101384.59;;;5.45;53.14
70248;BME280;57641;51.416;5.506;2022-11-20T01:13:48;101383.97;;;5.42;53.19
70248;BME280;57641;51.416;5.506;2022-11-20T01:16:23;101380.50;;;5.41;53.47
70248;BME280;57641;51.416;5.506;2022-11-20T01:18:51;101378.78;;;5.40;52.92
70248;BME280;57641;51.416;5.506;2022-11-20T01:21:25;101378.59;;;5.31;53.61
70248;BME280;57641;51.416;5.506;2022-11-20T01:23:51;101389.06;;;5.32;53.97
70248;BME280;57641;51.416;5.506;2022-11-20T01:26:20;101396.16;;;5.32;53.49
70248;BME280;57641;51.416;5.506;2022-11-20T01:28:45;101392.56;;;5.33;53.58
70248;BME280;57641;51.416;5.506;2022-11-20T01:31:14;101389.91;;;5.33;53.95
70248;BME280;57641;51.416;5.506;2022-11-20T01:33:40;101385.47;;;5.33;54.10
70248;BME280;57641;51.416;5.506;2022-11-20T01:36:08;101384.63;;;5.33;54.38
70248;BME280;57641;51.416;5.506;2022-11-20T01:38:33;101383.38;;;5.38;53.85
70248;BME280;57641;51.416;5.506;2022-11-20T01:40:59;101377.84;;;5.41;54.64
70248;BME280;57641;51.416;5.506;2022-11-20T01:43:25;101374.16;;;5.44;54.66
70248;BME280;57641;51.416;5.506;2022-11-20T01:51:32;101373.84;;;5.36;54.03
70248;BME280;57641;51.416;5.506;2022-11-20T01:54:02;101379.97;;;5.36;54.62
70248;BME280;57641;51.416;5.506;2022-11-20T01:56:31;101376.56;;;5.34;54.44
70248;BME280;57641;51.416;5.506;2022-11-20T01:59:02;101383.47;;;5.37;54.60
70248;BME280;57641;51.416;5.506;2022-11-20T02:01:29;101386.34;;;5.34;54.97
70248;BME280;57641;51.416;5.506;2022-11-20T02:03:58;101389.28;;;5.42;55.26
70248;BME280;57641;51.416;5.506;2022-11-20T02:06:43;101378.03;;;5.51;55.80
70248;BME280;57641;51.416;5.506;2022-11-20T02:09:10;101374.25;;;5.55;55.36
70248;BME280;57641;51.416;5.506;2022-11-20T02:11:36;101375.19;;;5.54;55.11
70248;BME280;57641;51.416;5.506;2022-11-20T02:14:02;101370.28;;;5.61;55.35
70248;BME280;57641;51.416;5.506;2022-11-20T02:16:30;101374.22;;;5.68;55.36
70248;BME280;57641;51.416;5.506;2022-11-20T02:18:58;101367.63;;;5.73;55.44
70248;BME280;57641;51.416;5.506;2022-11-20T02:21:40;101361.16;;;5.77;55.64
70248;BME280;57641;51.416;5.506;2022-11-20T02:24:11;101363.44;;;5.71;54.76
70248;BME280;57641;51.416;5.506;2022-11-20T02:26:46;101362.59;;;5.70;55.48
70248;BME280;57641;51.416;5.506;2022-11-20T02:29:17;101360.66;;;5.72;55.34
70248;BME280;57641;51.416;5.506;2022-11-20T02:31:44;101359.59;;;5.75;55.30
70248;BME280;57641;51.416;5.506;2022-11-20T02:34:10;101362.44;;;5.72;54.35
70248;BME280;57641;51.416;5.506;2022-11-20T02:36:39;101357.63;;;5.53;54.54
70248;BME280;57641;51.416;5.506;2022-11-20T02:39:06;101364.72;;;5.40;55.65
70248;BME280;57641;51.416;5.506;2022-11-20T02:41:42;101360.72;;;5.47;56.57
70248;BME280;57641;51.416;5.506;2022-11-20T02:44:08;101364.19;;;5.47;56.48
70248;BME280;57641;51.416;5.506;2022-11-20T02:46:33;101358.38;;;5.55;56.47
70248;BME280;57641;51.416;5.506;2022-11-20T02:49:01;101361.22;;;5.65;55.86
70248;BME280;57641;51.416;5.506;2022-11-20T02:51:27;101348.16;;;5.74;55.81
70248;BME280;57641;51.416;5.506;2022-11-20T02:53:55;101357.38;;;5.81;56.02
70248;BME280;57641;51.416;5.506;2022-11-20T02:56:26;101361.38;;;5.87;55.68
70248;BME280;57641;51.416;5.506;2022-11-20T02:58:55;101354.19;;;5.89;54.90
70248;BME280;57641;51.416;5.506;2022-11-20T03:01:21;101356.19;;;5.85;54.61
70248;BME280;57641;51.416;5.506;2022-11-20T03:03:46;101353.22;;;5.90;55.50
70248;BME280;57641;51.416;5.506;2022-11-20T03:06:15;101351.94;;;5.96;56.13
70248;BME280;57641;51.416;5.506;2022-11-20T03:08:44;101353.19;;;6.03;56.14
70248;BME280;57641;51.416;5.506;2022-11-20T03:11:12;101346.31;;;6.00;55.35
70248;BME280;57641;51.416;5.506;2022-11-20T03:14:01;101347.59;;;5.82;55.19
70248;BME280;57641;51.416;5.506;2022-11-20T03:16:26;101352.38;;;5.89;56.33
70248;BME280;57641;51.416;5.506;2022-11-20T03:18:57;101352.91;;;5.82;55.89
70248;BME280;57641;51.416;5.506;2022-11-20T03:21:23;101353.34;;;5.88;56.12
70248;BME280;57641;51.416;5.506;2022-11-20T03:23:49;101348.78;;;5.90;56.33
70248;BME280;57641;51.416;5.506;2022-11-20T03:26:17;101343.78;;;5.99;56.47
70248;BME280;57641;51.416;5.506;2022-11-20T03:29:01;101339.97;;;6.03;55.76
70248;BME280;57641;51.416;5.506;2022-11-20T03:31:32;101340.78;;;6.03;56.15
70248;BME280;57641;51.416;5.506;2022-11-20T03:33:58;101330.66;;;5.97;55.65
70248;BME280;57641;51.416;5.506;2022-11-20T03:36:25;101334.88;;;6.00;55.59
70248;BME280;57641;51.416;5.506;2022-11-20T03:38:53;101318.56;;;6.06;56.27
70248;BME280;57641;51.416;5.506;2022-11-20T03:41:22;101314.63;;;6.11;56.07
70248;BME280;57641;51.416;5.506;2022-11-20T03:43:59;101324.97;;;6.14;56.05
70248;BME280;57641;51.416;5.506;2022-11-20T03:46:26;101313.38;;;6.04;55.44
70248;BME280;57641;51.416;5.506;2022-11-20T03:48:53;101310.84;;;6.03;56.29
70248;BME280;57641;51.416;5.506;2022-11-20T03:51:24;101307.63;;;6.10;56.36
70248;BME280;57641;51.416;5.506;2022-11-20T03:53:52;101315.16;;;6.04;56.36
70248;BME280;57641;51.416;5.506;2022-11-20T03:56:19;101323.25;;;6.02;56.56
70248;BME280;57641;51.416;5.506;2022-11-20T03:58:45;101326.44;;;5.94;56.59
70248;BME280;57641;51.416;5.506;2022-11-20T04:01:12;101308.22;;;6.03;56.80
70248;BME280;57641;51.416;5.506;2022-11-20T04:03:39;101300.88;;;6.06;56.25
70248;BME280;57641;51.416;5.506;2022-11-20T04:06:10;101305.06;;;6.09;55.79
70248;BME280;57641;51.416;5.506;2022-11-20T04:08:36;101295.69;;;6.05;55.53
70248;BME280;57641;51.416;5.506;2022-11-20T04:13:41;101295.59;;;6.06;55.82
70248;BME280;57641;51.416;5.506;2022-11-20T04:16:09;101310.84;;;6.03;55.36
70248;BME280;57641;51.416;5.506;2022-11-20T04:18:35;101304.56;;;6.04;54.97
70248;BME280;57641;51.416;5.506;2022-11-20T04:21:02;101306.28;;;6.05;54.68
70248;BME280;57641;51.416;5.506;2022-11-20T04:23:28;101299.69;;;6.10;54.60
70248;BME280;57641;51.416;5.506;2022-11-20T04:25:53;101297.88;;;6.11;54.61
70248;BME280;57641;51.416;5.506;2022-11-20T04:28:19;101301.28;;;6.13;54.38
70248;BME280;57641;51.416;5.506;2022-11-20T04:30:45;101301.88;;;6.16;53.88
70248;BME280;57641;51.416;5.506;2022-11-20T04:33:11;101296.59;;;6.16;54.34
70248;BME280;57641;51.416;5.506;2022-11-20T04:35:37;101293.34;;;6.13;53.47
70248;BME280;57641;51.416;5.506;2022-11-20T04:38:03;101303.06;;;6.12;54.39
70248;BME280;57641;51.416;5.506;2022-11-20T04:40:28;101302.84;;;6.15;53.75
70248;BME280;57641;51.416;5.506;2022-11-20T04:42:55;101295.34;;;6.09;53.93
70248;BME280;57641;51.416;5.506;2022-11-20T04:45:22;101299.56;;;6.12;53.71
70248;BME280;57641;51.416;5.506;2022-11-20T04:47:48;101293.63;;;5.97;53.94
70248;BME280;57641;51.416;5.506;2022-11-20T04:50:13;101297.22;;;5.96;54.39
70248;BME280;57641;51.416;5.506;2022-11-20T04:52:39;101290.22;;;5.95;54.45
70248;BME280;57641;51.416;5.506;2022-11-20T04:55:04;101290.84;;;5.99;54.60
70248;BME280;57641;51.416;5.506;2022-11-20T04:57:30;101302.72;;;5.93;54.57
70248;BME280;57641;51.416;5.506;2022-11-20T04:59:55;101295.63;;;5.93;54.67
70248;BME280;57641;51.416;5.506;2022-11-20T05:02:21;101288.53;;;5.94;54.86
70248;BME280;57641;51.416;5.506;2022-11-20T05:04:47;101282.19;;;5.97;55.07
70248;BME280;57641;51.416;5.506;2022-11-20T05:07:12;101283.03;;;5.97;55.00
70248;BME280;57641;51.416;5.506;2022-11-20T05:09:38;101282.44;;;6.05;55.19
70248;BME280;57641;51.416;5.506;2022-11-20T05:12:03;101277.91;;;6.07;55.40
70248;BME280;57641;51.416;5.506;2022-11-20T05:14:29;101274.75;;;6.02;54.82
70248;BME280;57641;51.416;5.506;2022-11-20T05:16:55;101270.75;;;5.96;55.16
70248;BME280;57641;51.416;5.506;2022-11-20T05:19:20;101264.09;;;5.90;55.41
70248;BME280;57641;51.416;5.506;2022-11-20T05:21:45;101264.81;;;5.92;55.58
70248;BME280;57641;51.416;5.506;2022-11-20T05:24:11;101260.28;;;5.94;55.44
70248;BME280;57641;51.416;5.506;2022-11-20T05:26:37;101265.66;;;5.93;55.13
70248;BME280;57641;51.416;5.506;2022-11-20T05:29:02;101263.75;;;5.95;55.15
70248;BME280;57641;51.416;5.506;2022-11-20T05:31:28;101264.28;;;6.00;55.35
70248;BME280;57641;51.416;5.506;2022-11-20T05:33:55;101264.16;;;6.02;55.36
70248;BME280;57641;51.416;5.506;2022-11-20T05:36:20;101264.66;;;6.07;55.80
70248;BME280;57641;51.416;5.506;2022-11-20T05:38:46;101262.97;;;6.06;55.13
70248;BME280;57641;51.416;5.506;2022-11-20T05:41:17;101263.72;;;6.08;55.30
70248;BME280;57641;51.416;5.506;2022-11-20T05:43:45;101258.19;;;6.11;55.65
70248;BME280;57641;51.416;5.506;2022-11-20T05:46:13;101273.44;;;6.07;55.02
70248;BME280;57641;51.416;5.506;2022-11-20T05:48:40;101273.31;;;6.09;55.06
70248;BME280;57641;51.416;5.506;2022-11-20T05:51:10;101270.56;;;6.10;55.29
70248;BME280;57641;51.416;5.506;2022-11-20T05:53:36;101271.50;;;6.09;54.81
70248;BME280;57641;51.416;5.506;2022-11-20T05:56:04;101278.41;;;6.12;54.66
70248;BME280;57641;51.416;5.506;2022-11-20T05:58:31;101281.75;;;6.14;54.85
70248;BME280;57641;51.416;5.506;2022-11-20T06:01:16;101283.44;;;6.15;54.88
70248;BME280;57641;51.416;5.506;2022-11-20T06:03:43;101284.75;;;6.09;55.01
70248;BME280;57641;51.416;5.506;2022-11-20T06:06:11;101290.53;;;6.14;54.97
70248;BME280;57641;51.416;5.506;2022-11-20T06:08:37;101295.28;;;5.98;55.01
70248;BME280;57641;51.416;5.506;2022-11-20T06:11:08;101297.94;;;5.98;55.63
70248;BME280;57641;51.416;5.506;2022-11-20T06:13:34;101302.06;;;6.02;55.02
70248;BME280;57641;51.416;5.506;2022-11-20T06:15:59;101285.94;;;6.05;55.36
70248;BME280;57641;51.416;5.506;2022-11-20T06:18:26;101290.88;;;6.10;55.31
70248;BME280;57641;51.416;5.506;2022-11-20T06:21:07;101290.19;;;6.19;55.77
70248;BME280;57641;51.416;5.506;2022-11-20T06:23:34;101289.59;;;6.15;55.71
70248;BME280;57641;51.416;5.506;2022-11-20T06:26:05;101294.53;;;6.20;55.37
70248;BME280;57641;51.416;5.506;2022-11-20T06:28:31;101288.06;;;6.24;55.73
70248;BME280;57641;51.416;5.506;2022-11-20T06:30:57;101288.69;;;6.27;55.61
70248;BME280;57641;51.416;5.506;2022-11-20T06:33:23;101286.88;;;6.28;55.25
70248;BME280;57641;51.416;5.506;2022-11-20T06:35:49;101294.59;;;6.31;55.39
70248;BME280;57641;51.416;5.506;2022-11-20T06:38:14;101289.09;;;6.34;55.56
70248;BME280;57641;51.416;5.506;2022-11-20T06:40:41;101293.38;;;6.35;55.09
70248;BME280;57641;51.416;5.506;2022-11-20T06:43:09;101289.78;;;6.36;55.16
70248;BME280;57641;51.416;5.506;2022-11-20T06:45:34;101286.94;;;6.39;55.38
70248;BME280;57641;51.416;5.506;2022-11-20T06:48:00;101285.00;;;6.41;55.48
70248;BME280;57641;51.416;5.506;2022-11-20T06:50:25;101273.53;;;6.41;55.34
70248;BME280;57641;51.416;5.506;2022-11-20T06:52:51;101281.50;;;6.41;54.74
70248;BME280;57641;51.416;5.506;2022-11-20T06:55:16;101274.28;;;6.43;55.30
70248;BME280;57641;51.416;5.506;2022-11-20T06:57:42;101272.97;;;6.48;55.41
70248;BME280;57641;51.416;5.506;2022-11-20T07:00:12;101273.59;;;6.52;55.88
70248;BME280;57641;51.416;5.506;2022-11-20T07:02:38;101270.94;;;6.52;55.10
70248;BME280;57641;51.416;5.506;2022-11-20T07:05:04;101282.38;;;6.52;55.64
70248;BME280;57641;51.416;5.506;2022-11-20T07:07:29;101282.97;;;6.56;55.28
70248;BME280;57641;51.416;5.506;2022-11-20T07:09:55;101281.31;;;6.55;55.41
70248;BME280;57641;51.416;5.506;2022-11-20T07:12:20;101284.81;;;6.55;54.83
70248;BME280;57641;51.416;5.506;2022-11-20T07:14:46;101281.91;;;6.58;55.15
70248;BME280;57641;51.416;5.506;2022-11-20T07:17:11;101274.72;;;6.60;55.49
70248;BME280;57641;51.416;5.506;2022-11-20T07:19:37;101270.97;;;6.63;55.63
70248;BME280;57641;51.416;5.506;2022-11-20T07:22:03;101262.41;;;6.59;55.14
70248;BME280;57641;51.416;5.506;2022-11-20T07:24:28;101269.25;;;6.62;55.51
70248;BME280;57641;51.416;5.506;2022-11-20T07:26:53;101273.50;;;6.64;55.85
70248;BME280;57641;51.416;5.506;2022-11-20T07:29:19;101263.97;;;6.62;56.06
70248;BME280;57641;51.416;5.506;2022-11-20T07:31:44;101273.84;;;6.60;55.71
70248;BME280;57641;51.416;5.506;2022-11-20T07:34:09;101270.47;;;6.58;55.77
70248;BME280;57641;51.416;5.506;2022-11-20T07:36:35;101260.63;;;6.60;56.17
70248;BME280;57641;51.416;5.506;2022-11-20T07:39:00;101250.97;;;6.59;55.83
70248;BME280;57641;51.416;5.506;2022-11-20T07:41:26;101259.88;;;6.58;56.20
70248;BME280;57641;51.416;5.506;2022-11-20T07:43:53;101259.88;;;6.58;55.94
70248;BME280;57641;51.416;5.506;2022-11-20T07:46:18;101263.34;;;6.47;55.96
70248;BME280;57641;51.416;5.506;2022-11-20T07:48:44;101276.53;;;6.36;56.01
70248;BME280;57641;51.416;5.506;2022-11-20T07:51:09;101270.78;;;6.42;56.64
70248;BME280;57641;51.416;5.506;2022-11-20T07:53:34;101266.94;;;6.46;56.85
70248;BME280;57641;51.416;5.506;2022-11-20T07:56:01;101259.97;;;6.56;56.92
70248;BME280;57641;51.416;5.506;2022-11-20T07:58:31;101271.91;;;6.62;56.65
70248;BME280;57641;51.416;5.506;2022-11-20T08:01:05;101273.50;;;6.64;56.14
70248;BME280;57641;51.416;5.506;2022-11-20T08:03:30;101278.78;;;6.64;56.23
70248;BME280;57641;51.416;5.506;2022-11-20T08:06:01;101270.38;;;6.70;55.73
70248;BME280;57641;51.416;5.506;2022-11-20T08:08:27;101270.03;;;6.75;56.31
70248;BME280;57641;51.416;5.506;2022-11-20T08:10:53;101269.66;;;6.79;56.20
70248;BME280;57641;51.416;5.506;2022-11-20T08:13:39;101267.59;;;6.83;55.83
70248;BME280;57641;51.416;5.506;2022-11-20T08:16:23;101277.97;;;6.75;55.87
70248;BME280;57641;51.416;5.506;2022-11-20T08:18:48;101272.41;;;6.78;55.72
70248;BME280;57641;51.416;5.506;2022-11-20T08:21:15;101271.84;;;6.86;55.83
70248;BME280;57641;51.416;5.506;2022-11-20T08:23:40;101266.06;;;6.92;55.77
70248;BME280;57641;51.416;5.506;2022-11-20T08:26:05;101256.06;;;6.95;55.39
70248;BME280;57641;51.416;5.506;2022-11-20T08:28:31;101260.16;;;6.99;55.29
70248;BME280;57641;51.416;5.506;2022-11-20T08:31:01;101253.03;;;7.00;55.76
70248;BME280;57641;51.416;5.506;2022-11-20T08:33:27;101266.31;;;7.00;55.07
70248;BME280;57641;51.416;5.506;2022-11-20T08:35:52;101265.81;;;6.95;55.52
70248;BME280;57641;51.416;5.506;2022-11-20T08:38:18;101260.63;;;6.71;55.13
70248;BME280;57641;51.416;5.506;2022-11-20T08:40:43;101262.97;;;6.52;56.19
70248;BME280;57641;51.416;5.506;2022-11-20T08:43:31;101267.66;;;6.37;56.89
70248;BME280;57641;51.416;5.506;2022-11-20T08:45:57;101261.66;;;6.46;57.64
70248;BME280;57641;51.416;5.506;2022-11-20T08:48:23;101272.72;;;6.51;57.29
70248;BME280;57641;51.416;5.506;2022-11-20T08:50:48;101261.16;;;6.41;57.29
70248;BME280;57641;51.416;5.506;2022-11-20T08:53:14;101266.38;;;6.54;57.86
70248;BME280;57641;51.416;5.506;2022-11-20T08:55:39;101256.66;;;6.65;57.82
70248;BME280;57641;51.416;5.506;2022-11-20T08:58:05;101261.59;;;6.81;57.27
70248;BME280;57641;51.416;5.506;2022-11-20T09:00:31;101263.16;;;6.95;57.44
70248;BME280;57641;51.416;5.506;2022-11-20T09:02:57;101261.13;;;6.98;57.02
70248;BME280;57641;51.416;5.506;2022-11-20T09:05:24;101258.69;;;6.73;57.38
70248;BME280;57641;51.416;5.506;2022-11-20T09:07:49;101261.22;;;6.74;57.72
70248;BME280;57641;51.416;5.506;2022-11-20T09:10:15;101261.34;;;6.84;57.41
70248;BME280;57641;51.416;5.506;2022-11-20T09:12:40;101261.13;;;6.98;57.65
70248;BME280;57641;51.416;5.506;2022-11-20T09:15:06;101249.66;;;7.09;57.85
70248;BME280;57641;51.416;5.506;2022-11-20T09:17:35;101244.34;;;7.20;57.73
70248;BME280;57641;51.416;5.506;2022-11-20T09:20:00;101246.53;;;7.26;57.95
70248;BME280;57641;51.416;5.506;2022-11-20T09:22:26;101251.59;;;7.29;57.19
70248;BME280;57641;51.416;5.506;2022-11-20T09:24:51;101242.53;;;7.32;57.52
70248;BME280;57641;51.416;5.506;2022-11-20T09:27:17;101234.09;;;7.38;57.48
70248;BME280;57641;51.416;5.506;2022-11-20T09:29:48;101226.22;;;7.47;58.06
70248;BME280;57641;51.416;5.506;2022-11-20T09:32:19;101223.81;;;7.55;57.82
70248;BME280;57641;51.416;5.506;2022-11-20T09:34:45;101229.13;;;7.55;57.90
70248;BME280;57641;51.416;5.506;2022-11-20T09:37:10;101220.41;;;7.64;58.20
70248;BME280;57641;51.416;5.506;2022-11-20T09:39:36;101216.28;;;7.72;57.76
70248;BME280;57641;51.416;5.506;2022-11-20T09:45:24;101195.66;;;7.75;58.10
70248;BME280;57641;51.416;5.506;2022-11-20T09:56:39;101190.53;;;7.83;58.65
70248;BME280;57641;51.416;5.506;2022-11-20T09:59:07;101192.69;;;7.89;58.72
70248;BME280;57641;51.416;5.506;2022-11-20T10:01:39;101190.75;;;7.91;58.62
70248;BME280;57641;51.416;5.506;2022-11-20T10:04:12;101187.31;;;8.00;58.78
70248;BME280;57641;51.416;5.506;2022-11-20T10:06:49;101188.22;;;8.11;58.75
70248;BME280;57641;51.416;5.506;2022-11-20T10:09:24;101182.28;;;8.18;58.65
70248;BME280;57641;51.416;5.506;2022-11-20T10:12:03;101162.19;;;8.25;59.02
70248;BME280;57641;51.416;5.506;2022-11-20T10:14:52;101157.47;;;8.29;58.56
70248;BME280;57641;51.416;5.506;2022-11-20T10:17:44;101141.41;;;8.30;58.72
70248;BME280;57641;51.416;5.506;2022-11-20T10:20:16;101134.41;;;8.29;58.53
70248;BME280;57641;51.416;5.506;2022-11-20T10:31:17;101127.28;;;8.51;57.78
70248;BME280;57641;51.416;5.506;2022-11-20T10:33:49;101132.50;;;8.41;58.54
70248;BME280;57641;51.416;5.506;2022-11-20T10:36:46;101122.81;;;8.51;59.25
70248;BME280;57641;51.416;5.506;2022-11-20T10:39:28;101115.28;;;8.56;58.85
70248;BME280;57641;51.416;5.506;2022-11-20T10:41:56;101099.88;;;8.60;59.06
70248;BME280;57641;51.416;5.506;2022-11-20T10:44:27;101102.84;;;8.66;59.06
70248;BME280;57641;51.416;5.506;2022-11-20T10:47:16;101102.16;;;8.74;58.58
70248;BME280;57641;51.416;5.506;2022-11-20T10:49:45;101082.88;;;8.72;58.92
70248;BME280;57641;51.416;5.506;2022-11-20T10:52:32;101087.91;;;8.75;57.99
70248;BME280;57641;51.416;5.506;2022-11-20T10:55:42;101086.94;;;8.76;59.19
70248;BME280;57641;51.416;5.506;2022-11-20T10:58:16;101076.00;;;8.69;59.01
70248;BME280;57641;51.416;5.506;2022-11-20T11:00:49;101067.19;;;8.69;58.82
70248;BME280;57641;51.416;5.506;2022-11-20T11:03:27;101068.56;;;8.63;58.80
70248;BME280;57641;51.416;5.506;2022-11-20T11:06:00;101066.63;;;8.75;59.27
70248;BME280;57641;51.416;5.506;2022-11-20T11:08:34;101061.75;;;8.80;59.74
70248;BME280;57641;51.416;5.506;2022-11-20T11:13:34;101052.50;;;8.84;59.70
70248;BME280;57641;51.416;5.506;2022-11-20T11:16:00;101051.00;;;8.91;59.21
70248;BME280;57641;51.416;5.506;2022-11-20T11:18:28;101046.09;;;8.96;59.15
70248;BME280;57641;51.416;5.506;2022-11-20T11:20:56;101047.09;;;9.05;58.67
70248;BME280;57641;51.416;5.506;2022-11-20T11:26:01;101046.97;;;9.06;59.06
70248;BME280;57641;51.416;5.506;2022-11-20T11:28:27;101049.06;;;9.12;59.10
70248;BME280;57641;51.416;5.506;2022-11-20T11:30:54;101042.78;;;9.13;58.69
70248;BME280;57641;51.416;5.506;2022-11-20T11:35:50;101038.13;;;9.15;59.09
70248;BME280;57641;51.416;5.506;2022-11-20T11:40:54;101036.19;;;9.17;59.31
70248;BME280;57641;51.416;5.506;2022-11-20T11:43:24;101030.44;;;9.22;59.55
70248;BME280;57641;51.416;5.506;2022-11-20T11:46:32;101032.25;;;9.21;59.80
70248;BME280;57641;51.416;5.506;2022-11-20T11:51:56;101017.69;;;9.25;59.70
70248;BME280;57641;51.416;5.506;2022-11-20T11:54:50;101007.88;;;9.26;59.70
70248;BME280;57641;51.416;5.506;2022-11-20T11:59:57;100995.44;;;9.26;60.07
70248;BME280;57641;51.416;5.506;2022-11-20T12:05:01;100988.28;;;9.37;60.72
70248;BME280;57641;51.416;5.506;2022-11-20T12:07:41;100976.63;;;9.47;60.74
70248;BME280;57641;51.416;5.506;2022-11-20T12:10:28;100975.53;;;9.50;60.70
70248;BME280;57641;51.416;5.506;2022-11-20T12:15:51;100944.97;;;9.54;60.58
70248;BME280;57641;51.416;5.506;2022-11-20T12:18:19;100945.50;;;9.57;60.56
70248;BME280;57641;51.416;5.506;2022-11-20T12:21:06;100940.75;;;9.61;60.88
70248;BME280;57641;51.416;5.506;2022-11-20T12:23:48;100928.44;;;9.60;60.05
70248;BME280;57641;51.416;5.506;2022-11-20T12:29:48;100923.25;;;9.58;61.21
70248;BME280;57641;51.416;5.506;2022-11-20T12:43:26;100900.34;;;9.75;61.07
70248;BME280;57641;51.416;5.506;2022-11-20T13:08:02;100836.31;;;9.94;60.74
70248;BME280;57641;51.416;5.506;2022-11-20T13:10:48;100832.47;;;10.06;61.67
70248;BME280;57641;51.416;5.506;2022-11-20T13:16:05;100823.03;;;10.12;61.36
70248;BME280;57641;51.416;5.506;2022-11-20T13:18:38;100816.31;;;10.18;61.64
70248;BME280;57641;51.416;5.506;2022-11-20T13:21:22;100803.22;;;10.24;60.79
70248;BME280;57641;51.416;5.506;2022-11-20T13:26:43;100806.28;;;10.29;61.18
70248;BME280;57641;51.416;5.506;2022-11-20T13:29:17;100797.81;;;10.34;61.49
70248;BME280;57641;51.416;5.506;2022-11-20T13:31:45;100790.19;;;10.39;61.47
70248;BME280;57641;51.416;5.506;2022-11-20T13:34:23;100785.09;;;10.45;60.70
70248;BME280;57641;51.416;5.506;2022-11-20T13:36:52;100780.00;;;10.52;60.76
70248;BME280;57641;51.416;5.506;2022-11-20T13:39:34;100780.66;;;10.54;60.89
70248;BME280;57641;51.416;5.506;2022-11-20T13:42:18;100769.84;;;10.55;60.82
70248;BME280;57641;51.416;5.506;2022-11-20T13:45:00;100757.88;;;10.59;60.69
70248;BME280;57641;51.416;5.506;2022-11-20T13:47:27;100762.00;;;10.54;61.32
70248;BME280;57641;51.416;5.506;2022-11-20T13:49:55;100754.69;;;10.56;61.53
70248;BME280;57641;51.416;5.506;2022-11-20T14:03:36;100734.69;;;10.52;61.68
70248;BME280;57641;51.416;5.506;2022-11-20T14:06:04;100735.97;;;10.48;61.35
70248;BME280;57641;51.416;5.506;2022-11-20T14:11:15;100717.19;;;10.57;62.24
70248;BME280;57641;51.416;5.506;2022-11-20T14:14:13;100715.47;;;10.48;62.20
70248;BME280;57641;51.416;5.506;2022-11-20T14:16:39;100717.63;;;10.45;62.03
70248;BME280;57641;51.416;5.506;2022-11-20T14:24:42;100709.84;;;10.51;62.85
70248;BME280;57641;51.416;5.506;2022-11-20T14:27:21;100696.88;;;10.56;62.56
70248;BME280;57641;51.416;5.506;2022-11-20T14:29:49;100687.88;;;10.57;62.91
70248;BME280;57641;51.416;5.506;2022-11-20T14:32:17;100686.72;;;10.60;62.69
70248;BME280;57641;51.416;5.506;2022-11-20T14:34:46;100685.75;;;10.61;63.20
70248;BME280;57641;51.416;5.506;2022-11-20T14:37:18;100688.72;;;10.58;63.33
70248;BME280;57641;51.416;5.506;2022-11-20T14:39:51;100684.91;;;10.61;63.35
70248;BME280;57641;51.416;5.506;2022-11-20T14:42:22;100674.09;;;10.62;63.61
70248;BME280;57641;51.416;5.506;2022-11-20T14:44:50;100671.56;;;10.61;63.43
70248;BME280;57641;51.416;5.506;2022-11-20T14:47:21;100671.44;;;10.62;63.58
70248;BME280;57641;51.416;5.506;2022-11-20T14:49:50;100663.44;;;10.62;63.59
70248;BME280;57641;51.416;5.506;2022-11-20T14:52:19;100655.44;;;10.62;63.88
70248;BME280;57641;51.416;5.506;2022-11-20T14:54:47;100646.59;;;10.62;64.34
70248;BME280;57641;51.416;5.506;2022-11-20T14:57:31;100637.13;;;10.67;64.30
70248;BME280;57641;51.416;5.506;2022-11-20T15:00:23;100628.59;;;10.64;64.25
70248;BME280;57641;51.416;5.506;2022-11-20T15:02:50;100616.28;;;10.63;64.52